createdAt,value
2023-06-11T00:02:22.822Z,100.00
2023-06-11T00:04:52.129Z,100.00
2023-06-11T00:07:22.310Z,100.00
2023-06-11T00:09:50.924Z,100.00
2023-06-11T00:12:19.594Z,100.00
2023-06-11T00:14:48.320Z,100.00
2023-06-11T00:17:16.929Z,100.00
2023-06-11T00:19:45.794Z,100.00
2023-06-11T00:22:16.010Z,100.00
2023-06-11T00:24:46.467Z,100.00
2023-06-11T00:27:14.929Z,100.00
2023-06-11T00:29:43.299Z,100.00
2023-06-11T00:32:12.162Z,100.00
2023-06-11T00:34:40.787Z,100.00
2023-06-11T00:37:09.860Z,100.00
2023-06-11T00:39:38.209Z,100.00
2023-06-11T00:42:11.423Z,100.00
2023-06-11T00:44:40.316Z,100.00
2023-06-11T00:47:11.181Z,100.00
2023-06-11T00:49:39.909Z,100.00
2023-06-11T00:52:13.777Z,100.00
2023-06-11T00:54:43.112Z,100.00
2023-06-11T00:57:13.801Z,100.00
2023-06-11T00:59:42.607Z,100.00
2023-06-11T01:02:19.460Z,100.00
2023-06-11T01:04:49.921Z,100.00
2023-06-11T01:07:24.040Z,100.00
2023-06-11T01:09:54.106Z,100.00
2023-06-11T01:12:24.454Z,100.00
2023-06-11T01:14:53.939Z,100.00
2023-06-11T01:17:31.293Z,100.00
2023-06-11T01:20:12.184Z,100.00
2023-06-11T01:23:10.423Z,100.00
2023-06-11T01:25:51.554Z,100.00
2023-06-11T01:28:28.509Z,100.00
2023-06-11T01:31:02.342Z,100.00
2023-06-11T01:33:36.923Z,100.00
2023-06-11T01:36:09.071Z,100.00
2023-06-11T01:38:42.687Z,100.00
2023-06-11T01:41:17.706Z,100.00
2023-06-11T01:43:48.250Z,100.00
2023-06-11T01:46:16.968Z,100.00
2023-06-11T01:48:46.849Z,100.00
2023-06-11T01:51:15.898Z,100.00
2023-06-11T01:53:45.608Z,100.00
2023-06-11T01:56:14.216Z,100.00
2023-06-11T01:58:46.546Z,100.00
2023-06-11T02:01:16.451Z,100.00
2023-06-11T02:03:45.355Z,100.00
2023-06-11T02:06:14.258Z,100.00
2023-06-11T02:08:44.212Z,100.00
2023-06-11T02:11:12.983Z,100.00
2023-06-11T02:13:41.592Z,100.00
2023-06-11T02:16:10.294Z,100.00
2023-06-11T02:18:40.062Z,100.00
2023-06-11T02:21:08.785Z,100.00
2023-06-11T02:23:37.140Z,100.00
2023-06-11T02:26:05.962Z,100.00
2023-06-11T02:28:34.693Z,100.00
2023-06-11T02:31:03.308Z,100.00
2023-06-11T02:33:33.086Z,100.00
2023-06-11T02:36:02.777Z,100.00
2023-06-11T02:38:31.521Z,100.00
2023-06-11T02:40:59.872Z,100.00
2023-06-11T02:43:28.571Z,100.00
2023-06-11T02:45:57.332Z,100.00
2023-06-11T02:48:26.072Z,100.00
2023-06-11T02:50:54.413Z,100.00
2023-06-11T02:53:24.432Z,100.00
2023-06-11T02:55:53.189Z,100.00
2023-06-11T02:58:21.965Z,100.00
2023-06-11T03:00:50.760Z,100.00
2023-06-11T03:03:19.813Z,100.00
2023-06-11T03:05:50.780Z,100.00
2023-06-11T03:08:20.054Z,100.00
2023-06-11T03:10:50.523Z,100.00
2023-06-11T03:13:19.412Z,100.00
2023-06-11T03:15:51.362Z,100.00
2023-06-11T03:18:20.879Z,100.00
2023-06-11T03:20:49.342Z,100.00
2023-06-11T03:23:17.780Z,100.00
2023-06-11T03:25:47.264Z,100.00
2023-06-11T03:28:17.870Z,100.00
2023-06-11T03:30:46.350Z,100.00
2023-06-11T03:33:15.140Z,100.00
2023-06-11T03:35:43.437Z,100.00
2023-06-11T03:38:21.078Z,100.00
2023-06-11T03:40:49.798Z,100.00
2023-06-11T03:43:20.245Z,100.00
2023-06-11T03:45:50.065Z,100.00
2023-06-11T03:48:18.755Z,100.00
2023-06-11T03:50:48.076Z,100.00
2023-06-11T03:53:17.634Z,100.00
2023-06-11T03:55:46.572Z,100.00
2023-06-11T03:58:15.859Z,100.00
2023-06-11T04:00:46.090Z,100.00
2023-06-11T04:03:14.905Z,100.00
2023-06-11T04:05:43.772Z,100.00
2023-06-11T04:08:12.982Z,100.00
2023-06-11T04:10:43.914Z,100.00
2023-06-11T04:13:12.583Z,100.00
2023-06-11T04:15:41.223Z,100.00
2023-06-11T04:18:14.448Z,100.00
2023-06-11T04:20:43.288Z,100.00
2023-06-11T04:23:12.303Z,100.00
2023-06-11T04:25:41.414Z,100.00
2023-06-11T04:28:11.744Z,100.00
2023-06-11T04:30:41.287Z,100.00
2023-06-11T04:33:10.250Z,100.00
2023-06-11T04:35:40.591Z,100.00
2023-06-11T04:38:09.686Z,100.00
2023-06-11T04:40:39.965Z,100.00
2023-06-11T04:43:09.612Z,100.00
2023-06-11T04:45:39.873Z,100.00
2023-06-11T04:48:10.537Z,100.00
2023-06-11T04:50:41.179Z,100.00
2023-06-11T04:53:13.952Z,100.00
2023-06-11T04:55:42.793Z,100.00
2023-06-11T04:58:11.577Z,100.00
2023-06-11T05:00:41.364Z,100.00
2023-06-11T05:03:13.303Z,100.00
2023-06-11T05:05:43.203Z,100.00
2023-06-11T05:08:12.363Z,100.00
2023-06-11T05:10:41.062Z,100.00
2023-06-11T05:13:10.245Z,100.00
2023-06-11T05:15:39.599Z,100.00
2023-06-11T05:18:09.053Z,100.00
2023-06-11T05:20:37.596Z,100.00
2023-06-11T05:23:07.790Z,100.00
2023-06-11T05:25:47.640Z,100.00
2023-06-11T05:28:19.814Z,100.00
2023-06-11T05:30:51.051Z,100.00
2023-06-11T05:33:21.627Z,100.00
2023-06-11T05:35:52.334Z,100.00
2023-06-11T05:38:22.422Z,100.00
2023-06-11T05:40:51.392Z,100.00
2023-06-11T05:43:20.190Z,100.00
2023-06-11T05:45:50.571Z,100.00
2023-06-11T05:48:21.529Z,100.00
2023-06-11T05:50:51.915Z,100.00
2023-06-11T05:53:21.872Z,99.07
2023-06-11T05:55:53.046Z,99.53
2023-06-11T05:58:24.714Z,97.54
2023-06-11T06:00:55.493Z,96.73
2023-06-11T06:03:24.608Z,93.62
2023-06-11T06:05:53.446Z,90.66
2023-06-11T06:08:24.176Z,90.55
2023-06-11T06:10:52.821Z,83.53
2023-06-11T06:13:21.567Z,83.83
2023-06-11T06:15:50.982Z,84.43
2023-06-11T06:18:22.426Z,81.71
2023-06-11T06:20:51.266Z,82.01
2023-06-11T06:23:19.993Z,81.44
2023-06-11T06:25:57.980Z,77.88
2023-06-11T06:28:26.835Z,77.24
2023-06-11T06:30:56.267Z,78.08
2023-06-11T06:33:25.191Z,74.60
2023-06-11T06:35:53.987Z,75.68
2023-06-11T06:38:22.975Z,71.53
2023-06-11T06:40:52.290Z,74.24
2023-06-11T06:43:22.235Z,71.69
2023-06-11T06:45:57.396Z,67.45
2023-06-11T06:48:29.597Z,66.91
2023-06-11T06:50:59.540Z,67.79
2023-06-11T06:53:28.711Z,69.81
2023-06-11T06:55:59.967Z,68.54
2023-06-11T06:58:30.507Z,66.35
2023-06-11T07:00:59.537Z,63.69
2023-06-11T07:03:28.254Z,66.91
2023-06-11T07:05:58.790Z,61.22
2023-06-11T07:08:27.778Z,61.69
2023-06-11T07:10:57.630Z,61.03
2023-06-11T07:13:41.348Z,62.34
2023-06-11T07:16:11.963Z,64.21
2023-06-11T07:18:44.193Z,57.66
2023-06-11T07:21:13.966Z,60.77
2023-06-11T07:23:43.822Z,59.14
2023-06-11T07:26:15.208Z,60.23
2023-06-11T07:28:47.021Z,56.37
2023-06-11T07:31:15.826Z,56.76
2023-06-11T07:33:46.079Z,55.30
2023-06-11T07:36:16.061Z,56.46
2023-06-11T07:38:45.184Z,55.35
2023-06-11T07:41:15.112Z,53.53
2023-06-11T07:43:43.617Z,53.45
2023-06-11T07:46:17.628Z,53.67
2023-06-11T07:48:46.508Z,55.48
2023-06-11T07:51:19.121Z,54.77
2023-06-11T07:53:51.739Z,52.13
2023-06-11T07:56:20.386Z,50.86
2023-06-11T07:58:49.013Z,52.07
2023-06-11T08:01:18.978Z,51.24
2023-06-11T08:03:47.616Z,55.75
2023-06-11T08:06:16.377Z,53.15
2023-06-11T08:08:44.903Z,54.08
2023-06-11T08:11:13.244Z,53.57
2023-06-11T08:13:42.274Z,52.49
2023-06-11T08:16:10.839Z,53.05
2023-06-11T08:18:40.997Z,53.46
2023-06-11T08:21:09.670Z,54.96
2023-06-11T08:23:38.417Z,51.01
2023-06-11T08:26:06.842Z,51.32
2023-06-11T08:28:36.081Z,47.39
2023-06-11T08:31:04.390Z,48.44
2023-06-11T08:33:34.411Z,51.90
2023-06-11T08:36:04.607Z,46.85
2023-06-11T08:38:32.958Z,47.20
2023-06-11T08:41:01.614Z,47.14
2023-06-11T08:43:30.404Z,49.25
2023-06-11T08:45:58.857Z,51.53
2023-06-11T08:48:31.990Z,47.95
2023-06-11T08:51:05.737Z,45.32
2023-06-11T08:53:34.802Z,48.09
2023-06-11T08:56:03.199Z,47.13
2023-06-11T08:58:35.217Z,49.18
2023-06-11T09:01:10.771Z,47.56
2023-06-11T09:03:39.571Z,47.04
2023-06-11T09:06:10.390Z,47.94
2023-06-11T09:08:39.043Z,44.43
2023-06-11T09:11:07.815Z,45.36
2023-06-11T09:13:36.437Z,45.49
2023-06-11T09:16:04.997Z,41.86
2023-06-11T09:18:33.414Z,46.29
2023-06-11T09:21:02.414Z,45.00
2023-06-11T09:23:34.470Z,44.38
2023-06-11T09:26:04.158Z,45.70
2023-06-11T09:28:34.666Z,42.28
2023-06-11T09:31:06.239Z,40.92
2023-06-11T09:33:35.305Z,41.76
2023-06-11T09:36:03.677Z,43.33
2023-06-11T09:38:36.298Z,44.00
2023-06-11T09:41:08.087Z,39.67
2023-06-11T09:43:36.818Z,41.27
2023-06-11T09:46:07.317Z,43.50
2023-06-11T09:48:37.602Z,40.86
2023-06-11T09:51:08.065Z,39.85
2023-06-11T09:53:39.832Z,40.51
2023-06-11T09:56:11.430Z,39.60
2023-06-11T09:58:42.278Z,41.05
2023-06-11T10:01:11.900Z,39.94
2023-06-11T10:03:41.764Z,40.02
2023-06-11T10:06:18.163Z,37.06
2023-06-11T10:08:52.953Z,36.87
2023-06-11T10:11:25.285Z,38.16
2023-06-11T10:14:00.447Z,37.05
2023-06-11T10:16:30.578Z,35.33
2023-06-11T10:19:08.975Z,35.31
2023-06-11T10:21:42.545Z,36.59
2023-06-11T10:24:23.739Z,37.74
2023-06-11T10:27:10.314Z,38.99
2023-06-11T10:29:40.152Z,37.38
2023-06-11T10:32:19.209Z,39.49
2023-06-11T10:34:50.523Z,39.41
2023-06-11T10:37:32.091Z,36.06
2023-06-11T10:40:01.900Z,36.31
2023-06-11T10:42:36.731Z,34.71
2023-06-11T10:45:10.226Z,36.16
2023-06-11T10:47:45.326Z,36.65
2023-06-11T10:50:16.833Z,36.02
2023-06-11T10:52:52.724Z,35.33
2023-06-11T10:55:24.920Z,36.25
2023-06-11T10:57:54.747Z,34.33
2023-06-11T11:00:24.346Z,34.26
2023-06-11T11:02:52.992Z,32.77
2023-06-11T11:05:22.285Z,35.68
2023-06-11T11:07:50.828Z,35.49
2023-06-11T11:10:20.683Z,35.61
2023-06-11T11:12:50.872Z,37.95
2023-06-11T11:15:19.600Z,35.02
2023-06-11T11:17:49.287Z,34.51
2023-06-11T11:20:21.013Z,35.15
2023-06-11T11:22:55.424Z,31.58
2023-06-11T11:25:29.275Z,34.80
2023-06-11T11:27:59.800Z,36.14
2023-06-11T11:30:29.690Z,32.19
2023-06-11T11:32:59.113Z,32.52
2023-06-11T11:35:29.982Z,34.57
2023-06-11T11:37:58.557Z,33.29
2023-06-11T11:40:27.127Z,36.22
2023-06-11T11:43:00.256Z,34.31
2023-06-11T11:45:34.322Z,32.94
2023-06-11T11:48:05.561Z,34.19
2023-06-11T11:50:35.067Z,35.88
2023-06-11T11:53:06.931Z,35.49
2023-06-11T11:55:44.830Z,32.45
2023-06-11T11:58:22.862Z,32.04
2023-06-11T12:00:53.811Z,34.71
2023-06-11T12:03:24.400Z,33.01
2023-06-11T12:06:01.348Z,32.63
2023-06-11T12:08:32.385Z,32.74
2023-06-11T12:11:02.432Z,34.17
2023-06-11T12:13:32.242Z,37.29
2023-06-11T12:16:04.216Z,37.57
2023-06-11T12:18:33.185Z,34.34
2023-06-11T12:21:01.783Z,32.26
2023-06-11T12:23:30.594Z,30.41
2023-06-11T12:26:01.239Z,33.71
2023-06-11T12:28:31.386Z,36.36
2023-06-11T12:31:00.131Z,37.14
2023-06-11T12:33:28.871Z,38.49
2023-06-11T12:35:57.377Z,35.10
2023-06-11T12:38:26.117Z,36.04
2023-06-11T12:40:54.516Z,34.52
2023-06-11T12:43:23.150Z,34.86
2023-06-11T12:45:52.951Z,34.21
2023-06-11T12:48:21.650Z,34.02
2023-06-11T12:50:50.160Z,32.76
2023-06-11T12:53:18.434Z,31.09
2023-06-11T12:55:47.014Z,32.87
2023-06-11T12:58:15.425Z,35.34
2023-06-11T13:00:43.816Z,37.44
2023-06-11T13:03:13.756Z,35.88
2023-06-11T13:05:42.466Z,33.14
2023-06-11T13:08:11.691Z,36.22
2023-06-11T13:10:41.588Z,35.83
2023-06-11T13:13:10.307Z,34.00
2023-06-11T13:15:39.063Z,32.59
2023-06-11T13:18:08.113Z,34.13
2023-06-11T13:20:38.052Z,34.88
2023-06-11T13:23:06.668Z,32.81
2023-06-11T13:25:35.014Z,31.36
2023-06-11T13:28:03.457Z,32.61
2023-06-11T13:30:31.948Z,32.50
2023-06-11T13:33:01.437Z,31.80
2023-06-11T13:35:30.560Z,34.93
2023-06-11T13:38:00.227Z,36.84
2023-06-11T13:40:28.550Z,39.84
2023-06-11T13:42:56.873Z,38.91
2023-06-11T13:45:25.438Z,37.68
2023-06-11T13:47:54.167Z,35.18
2023-06-11T13:50:22.487Z,36.46
2023-06-11T13:52:51.114Z,35.77
2023-06-11T13:55:21.082Z,37.91
2023-06-11T13:57:49.434Z,38.28
2023-06-11T14:00:18.832Z,36.72
2023-06-11T14:02:47.579Z,35.97
2023-06-11T14:05:16.324Z,35.26
2023-06-11T14:07:44.838Z,34.57
2023-06-11T14:10:13.719Z,34.24
2023-06-11T14:12:43.907Z,33.90
2023-06-11T14:15:13.201Z,33.73
2023-06-11T14:17:43.748Z,34.59
2023-06-11T14:20:15.874Z,31.79
2023-06-11T14:22:45.344Z,32.48
2023-06-11T14:25:13.875Z,33.94
2023-06-11T14:27:44.281Z,32.99
2023-06-11T14:30:14.577Z,34.15
2023-06-11T14:32:43.413Z,36.17
2023-06-11T14:35:12.200Z,35.08
2023-06-11T14:37:40.511Z,33.92
2023-06-11T14:40:10.405Z,34.32
2023-06-11T14:42:39.288Z,33.62
2023-06-11T14:45:10.580Z,32.99
2023-06-11T14:47:39.014Z,33.77
2023-06-11T14:50:08.847Z,32.24
2023-06-11T14:52:37.204Z,30.99
2023-06-11T14:55:06.794Z,32.65
2023-06-11T14:57:35.154Z,35.90
2023-06-11T15:00:05.434Z,36.72
2023-06-11T15:02:36.065Z,38.92
2023-06-11T15:05:05.273Z,39.65
2023-06-11T15:07:35.828Z,37.20
2023-06-11T15:10:06.212Z,35.51
2023-06-11T15:12:35.653Z,34.92
2023-06-11T15:15:04.175Z,33.26
2023-06-11T15:17:37.245Z,32.42
2023-06-11T15:20:07.128Z,33.70
2023-06-11T15:22:38.448Z,33.22
2023-06-11T15:25:07.673Z,35.15
2023-06-11T15:27:35.926Z,36.65
2023-06-11T15:30:05.092Z,38.38
2023-06-11T15:32:34.972Z,38.80
2023-06-11T15:35:04.245Z,40.39
2023-06-11T15:37:32.523Z,41.66
2023-06-11T15:40:01.254Z,39.83
2023-06-11T15:42:29.701Z,36.72
2023-06-11T15:44:58.420Z,36.14
2023-06-11T15:47:26.782Z,35.16
2023-06-11T15:49:56.508Z,35.32
2023-06-11T15:52:25.094Z,35.69
2023-06-11T15:54:53.457Z,36.27
2023-06-11T15:57:21.810Z,34.80
2023-06-11T15:59:51.196Z,33.77
2023-06-11T16:02:19.878Z,33.79
2023-06-11T16:04:49.327Z,34.39
2023-06-11T16:07:19.789Z,33.33
2023-06-11T16:09:48.221Z,34.08
2023-06-11T16:12:17.045Z,34.52
2023-06-11T16:14:46.200Z,34.35
2023-06-11T16:17:16.179Z,32.87
2023-06-11T16:19:44.491Z,32.92
2023-06-11T16:22:13.067Z,34.76
2023-06-11T16:24:42.880Z,36.12
2023-06-11T16:27:11.577Z,35.98
2023-06-11T16:29:39.827Z,36.15
2023-06-11T16:32:12.293Z,33.71
2023-06-11T16:34:40.869Z,34.71
2023-06-11T16:37:09.359Z,34.13
2023-06-11T16:39:37.959Z,34.50
2023-06-11T16:42:09.200Z,35.54
2023-06-11T16:44:37.843Z,35.02
2023-06-11T16:47:07.104Z,36.08
2023-06-11T16:49:36.077Z,35.41
2023-06-11T16:52:05.317Z,37.14
2023-06-11T16:54:33.984Z,36.93
2023-06-11T16:57:02.739Z,36.24
2023-06-11T16:59:32.394Z,36.74
2023-06-11T17:02:01.367Z,36.26
2023-06-11T17:04:29.987Z,36.97
2023-06-11T17:06:58.373Z,38.73
2023-06-11T17:09:26.976Z,37.51
2023-06-11T17:11:55.612Z,37.91
2023-06-11T17:14:23.874Z,38.38
2023-06-11T17:16:53.961Z,37.43
2023-06-11T17:19:22.695Z,38.89
2023-06-11T17:21:51.476Z,38.74
2023-06-11T17:24:20.168Z,38.94
2023-06-11T17:26:48.764Z,40.09
2023-06-11T17:29:17.696Z,41.17
2023-06-11T17:31:46.365Z,39.20
2023-06-11T17:34:16.137Z,40.65
2023-06-11T17:36:44.479Z,41.02
2023-06-11T17:39:13.142Z,42.18
2023-06-11T17:41:42.102Z,41.57
2023-06-11T17:44:10.602Z,43.35
2023-06-11T17:46:39.244Z,44.72
2023-06-11T17:49:07.579Z,44.46
2023-06-11T17:51:37.233Z,44.32
2023-06-11T17:54:05.743Z,45.30
2023-06-11T17:56:34.610Z,46.87
2023-06-11T17:59:03.293Z,49.09
2023-06-11T18:01:32.001Z,50.49
2023-06-11T18:04:00.748Z,53.08
2023-06-11T18:06:29.950Z,52.45
2023-06-11T18:08:59.805Z,51.85
2023-06-11T18:11:28.674Z,54.37
2023-06-11T18:13:57.789Z,53.54
2023-06-11T18:16:26.283Z,55.49
2023-06-11T18:18:55.568Z,55.26
2023-06-11T18:21:24.289Z,58.10
2023-06-11T18:23:53.015Z,55.20
2023-06-11T18:26:23.255Z,57.18
2023-06-11T18:28:51.944Z,58.39
2023-06-11T18:31:21.114Z,56.40
2023-06-11T18:33:49.919Z,57.56
2023-06-11T18:36:18.634Z,57.58
2023-06-11T18:38:47.394Z,59.94
2023-06-11T18:41:15.822Z,60.88
2023-06-11T18:43:45.504Z,62.96
2023-06-11T18:46:14.509Z,62.83
2023-06-11T18:48:43.197Z,62.71
2023-06-11T18:51:11.549Z,64.04
2023-06-11T18:53:40.244Z,65.65
2023-06-11T18:56:09.055Z,65.74
2023-06-11T18:58:37.380Z,62.37
2023-06-11T19:01:07.667Z,61.22
2023-06-11T19:03:39.940Z,58.89
2023-06-11T19:06:10.174Z,61.70
2023-06-11T19:08:38.800Z,59.30
2023-06-11T19:11:07.236Z,57.60
2023-06-11T19:13:40.055Z,57.98
2023-06-11T19:16:10.139Z,57.74
2023-06-11T19:18:38.781Z,59.26
2023-06-11T19:21:07.441Z,60.72
2023-06-11T19:23:36.117Z,59.40
2023-06-11T19:26:04.752Z,60.18
2023-06-11T19:28:33.479Z,61.18
2023-06-11T19:31:01.896Z,60.66
2023-06-11T19:33:31.597Z,61.11
2023-06-11T19:36:00.337Z,60.92
2023-06-11T19:38:28.711Z,61.34
2023-06-11T19:40:57.403Z,60.32
2023-06-11T19:43:26.379Z,59.82
2023-06-11T19:45:55.036Z,59.84
2023-06-11T19:48:23.769Z,60.54
2023-06-11T19:50:54.100Z,60.35
2023-06-11T19:53:22.717Z,59.41
2023-06-11T19:55:51.368Z,59.23
2023-06-11T19:58:20.057Z,58.98
2023-06-11T20:00:48.735Z,58.89
2023-06-11T20:03:17.386Z,58.51
2023-06-11T20:05:46.140Z,58.15
2023-06-11T20:08:16.304Z,56.94
2023-06-11T20:10:45.405Z,57.72
2023-06-11T20:13:14.139Z,56.80
2023-06-11T20:15:43.201Z,56.93
2023-06-11T20:18:11.811Z,57.02
2023-06-11T20:20:40.423Z,57.18
2023-06-11T20:23:09.321Z,56.46
2023-06-11T20:25:39.046Z,56.60
2023-06-11T20:28:07.746Z,57.17
2023-06-11T20:30:36.486Z,57.20
2023-06-11T20:33:05.143Z,57.07
2023-06-11T20:35:33.764Z,56.55
2023-06-11T20:38:03.240Z,56.49
2023-06-11T20:40:32.261Z,57.27
2023-06-11T20:43:01.903Z,57.55
2023-06-11T20:45:30.336Z,58.50
2023-06-11T20:47:59.096Z,58.19
2023-06-11T20:50:28.067Z,59.35
2023-06-11T20:52:56.686Z,59.20
2023-06-11T20:55:25.025Z,59.38
2023-06-11T20:57:53.657Z,59.83
2023-06-11T21:00:23.689Z,60.19
2023-06-11T21:02:52.395Z,60.52
2023-06-11T21:05:22.794Z,62.06
2023-06-11T21:07:51.396Z,62.99
2023-06-11T21:10:20.005Z,62.62
2023-06-11T21:12:50.114Z,62.66
2023-06-11T21:15:19.173Z,62.00
2023-06-11T21:17:49.989Z,62.95
2023-06-11T21:20:18.859Z,63.20
2023-06-11T21:22:47.830Z,62.39
2023-06-11T21:25:16.720Z,62.33
2023-06-11T21:27:45.420Z,62.92
2023-06-11T21:30:14.753Z,63.85
2023-06-11T21:32:43.126Z,62.24
2023-06-11T21:35:12.771Z,62.64
2023-06-11T21:37:41.094Z,62.69
2023-06-11T21:40:11.960Z,62.51
2023-06-11T21:42:41.225Z,63.56
2023-06-11T21:45:10.521Z,63.86
2023-06-11T21:47:39.448Z,64.11
2023-06-11T21:50:09.176Z,66.13
2023-06-11T21:52:39.641Z,66.53
2023-06-11T21:55:09.073Z,64.74
2023-06-11T21:57:37.807Z,65.63
2023-06-11T22:00:13.204Z,66.91
2023-06-11T22:02:43.025Z,67.05
2023-06-11T22:05:13.580Z,67.82
2023-06-11T22:07:45.970Z,67.87
2023-06-11T22:10:15.781Z,68.05
2023-06-11T22:12:44.482Z,67.06
2023-06-11T22:15:15.010Z,68.31
2023-06-11T22:17:47.602Z,68.52
2023-06-11T22:20:16.994Z,68.45
2023-06-11T22:22:47.754Z,68.63
2023-06-11T22:25:16.599Z,68.96
2023-06-11T22:27:46.087Z,68.14
2023-06-11T22:30:15.307Z,68.29
2023-06-11T22:32:44.248Z,69.80
2023-06-11T22:35:13.055Z,68.87
2023-06-11T22:37:41.519Z,68.51
2023-06-11T22:40:12.571Z,70.18
2023-06-11T22:42:41.733Z,70.65
2023-06-11T22:45:10.978Z,69.94
2023-06-11T22:47:39.914Z,70.88
2023-06-11T22:50:10.363Z,70.98
2023-06-11T22:52:40.775Z,70.91
2023-06-11T22:55:12.065Z,71.45
2023-06-11T22:57:40.415Z,71.55
2023-06-11T23:00:12.251Z,72.43
2023-06-11T23:02:40.836Z,73.12
2023-06-11T23:05:10.571Z,72.96
2023-06-11T23:07:42.873Z,73.09
2023-06-11T23:10:13.236Z,74.87
2023-06-11T23:12:42.141Z,75.53
2023-06-11T23:15:12.180Z,76.43
2023-06-11T23:17:42.538Z,76.58
2023-06-11T23:20:12.136Z,77.25
2023-06-11T23:22:41.551Z,77.23
2023-06-11T23:25:14.052Z,77.43
2023-06-11T23:27:45.077Z,78.58
2023-06-11T23:30:14.598Z,78.77
2023-06-11T23:32:44.365Z,79.58
2023-06-11T23:35:13.127Z,80.63
2023-06-11T23:37:42.581Z,80.73
2023-06-11T23:40:15.554Z,81.16
2023-06-11T23:42:44.570Z,81.89
2023-06-11T23:45:13.773Z,82.63
2023-06-11T23:47:44.097Z,82.67
2023-06-11T23:50:13.230Z,83.19
2023-06-11T23:52:41.702Z,84.16
2023-06-11T23:55:10.897Z,83.99
2023-06-11T23:57:41.396Z,84.48
